sensor_id;sensor_type;location;lat;lon;timestamp;P1;durP1;ratioP1;P2;durP2;ratioP2
78205;SDS011;67480;48.920;12.880;2024-03-22T00:00:31;12.80;;;9.98;;
78205;SDS011;67480;48.920;12.880;2024-03-22T00:03:40;14.07;;;10.48;;
78205;SDS011;67480;48.920;12.880;2024-03-22T00:10:13;13.27;;;10.40;;
78205;SDS011;67480;48.920;12.880;2024-03-22T00:13:30;11.32;;;9.65;;
78205;SDS011;67480;48.920;12.880;2024-03-22T00:16:48;12.98;;;9.90;;
78205;SDS011;67480;48.920;12.880;2024-03-22T00:23:21;14.68;;;10.02;;
78205;SDS011;67480;48.920;12.880;2024-03-22T00:26:44;12.00;;;9.85;;
78205;SDS011;67480;48.920;12.880;2024-03-22T00:29:26;14.57;;;10.55;;
78205;SDS011;67480;48.920;12.880;2024-03-22T00:35:14;13.68;;;10.07;;
78205;SDS011;67480;48.920;12.880;2024-03-22T00:38:46;12.82;;;10.15;;
78205;SDS011;67480;48.920;12.880;2024-03-22T00:41:56;15.13;;;10.98;;
78205;SDS011;67480;48.920;12.880;2024-03-22T00:44:49;15.52;;;11.18;;
78205;SDS011;67480;48.920;12.880;2024-03-22T00:51:30;12.98;;;10.55;;
78205;SDS011;67480;48.920;12.880;2024-03-22T00:54:16;15.07;;;11.48;;
78205;SDS011;67480;48.920;12.880;2024-03-22T00:56:47;16.02;;;11.65;;
78205;SDS011;67480;48.920;12.880;2024-03-22T01:03:14;13.63;;;11.30;;
78205;SDS011;67480;48.920;12.880;2024-03-22T01:06:52;15.30;;;11.18;;
78205;SDS011;67480;48.920;12.880;2024-03-22T01:10:22;14.45;;;11.05;;
78205;SDS011;67480;48.920;12.880;2024-03-22T01:13:47;12.07;;;10.77;;
78205;SDS011;67480;48.920;12.880;2024-03-22T01:16:43;12.63;;;10.02;;
78205;SDS011;67480;48.920;12.880;2024-03-22T01:19:25;14.32;;;10.38;;
78205;SDS011;67480;48.920;12.880;2024-03-22T01:22:01;13.15;;;10.02;;
78205;SDS011;67480;48.920;12.880;2024-03-22T01:27:41;13.00;;;10.48;;
78205;SDS011;67480;48.920;12.880;2024-03-22T01:30:48;15.13;;;9.85;;
78205;SDS011;67480;48.920;12.880;2024-03-22T01:34:46;11.82;;;9.77;;
78205;SDS011;67480;48.920;12.880;2024-03-22T01:37:56;10.73;;;8.70;;
78205;SDS011;67480;48.920;12.880;2024-03-22T01:41:22;11.30;;;8.85;;
78205;SDS011;67480;48.920;12.880;2024-03-22T01:51:21;9.63;;;7.25;;
78205;SDS011;67480;48.920;12.880;2024-03-22T01:54:54;8.63;;;6.57;;
78205;SDS011;67480;48.920;12.880;2024-03-22T02:04:57;7.18;;;5.47;;
78205;SDS011;67480;48.920;12.880;2024-03-22T02:25:52;8.23;;;5.60;;
78205;SDS011;67480;48.920;12.880;2024-03-22T02:43:30;6.47;;;5.32;;
78205;SDS011;67480;48.920;12.880;2024-03-22T02:46:44;5.95;;;4.75;;
78205;SDS011;67480;48.920;12.880;2024-03-22T02:53:30;4.82;;;3.70;;
78205;SDS011;67480;48.920;12.880;2024-03-22T02:56:57;4.28;;;3.60;;
78205;SDS011;67480;48.920;12.880;2024-03-22T02:59:31;5.18;;;4.03;;
78205;SDS011;67480;48.920;12.880;2024-03-22T03:02:10;4.87;;;4.37;;
78205;SDS011;67480;48.920;12.880;2024-03-22T03:05:03;6.05;;;4.40;;
78205;SDS011;67480;48.920;12.880;2024-03-22T03:07:47;4.60;;;3.92;;
78205;SDS011;67480;48.920;12.880;2024-03-22T03:10:32;5.78;;;4.47;;
78205;SDS011;67480;48.920;12.880;2024-03-22T03:13:28;6.00;;;4.68;;
78205;SDS011;67480;48.920;12.880;2024-03-22T03:16:30;5.25;;;4.40;;
78205;SDS011;67480;48.920;12.880;2024-03-22T03:19:11;7.25;;;4.25;;
78205;SDS011;67480;48.920;12.880;2024-03-22T03:21:43;4.90;;;4.40;;
78205;SDS011;67480;48.920;12.880;2024-03-22T03:25:09;6.35;;;5.00;;
78205;SDS011;67480;48.920;12.880;2024-03-22T03:28:02;7.47;;;5.88;;
78205;SDS011;67480;48.920;12.880;2024-03-22T03:31:34;7.35;;;5.60;;
78205;SDS011;67480;48.920;12.880;2024-03-22T03:35:04;9.15;;;6.57;;
78205;SDS011;67480;48.920;12.880;2024-03-22T03:38:08;8.40;;;6.28;;
78205;SDS011;67480;48.920;12.880;2024-03-22T03:44:15;10.60;;;7.30;;
78205;SDS011;67480;48.920;12.880;2024-03-22T03:46:50;8.65;;;7.32;;
78205;SDS011;67480;48.920;12.880;2024-03-22T03:49:35;9.82;;;7.75;;
78205;SDS011;67480;48.920;12.880;2024-03-22T03:53:32;10.27;;;7.68;;
78205;SDS011;67480;48.920;12.880;2024-03-22T04:00:11;12.05;;;8.38;;
78205;SDS011;67480;48.920;12.880;2024-03-22T04:03:36;12.10;;;8.95;;
78205;SDS011;67480;48.920;12.880;2024-03-22T04:06:30;11.70;;;8.57;;
78205;SDS011;67480;48.920;12.880;2024-03-22T04:13:20;12.27;;;8.85;;
78205;SDS011;67480;48.920;12.880;2024-03-22T04:16:45;10.93;;;8.55;;
78205;SDS011;67480;48.920;12.880;2024-03-22T04:30:59;12.63;;;9.80;;
78205;SDS011;67480;48.920;12.880;2024-03-22T04:41:40;12.35;;;7.72;;
78205;SDS011;67480;48.920;12.880;2024-03-22T05:05:33;7.85;;;6.18;;
78205;SDS011;67480;48.920;12.880;2024-03-22T05:09:00;10.27;;;7.03;;
78205;SDS011;67480;48.920;12.880;2024-03-22T05:16:06;8.85;;;6.25;;
78205;SDS011;67480;48.920;12.880;2024-03-22T05:40:37;16.48;;;11.80;;
78205;SDS011;67480;48.920;12.880;2024-03-22T05:43:17;18.98;;;13.25;;
78205;SDS011;67480;48.920;12.880;2024-03-22T05:49:01;17.83;;;12.40;;
78205;SDS011;67480;48.920;12.880;2024-03-22T05:51:43;16.33;;;12.65;;
78205;SDS011;67480;48.920;12.880;2024-03-22T05:58:00;21.42;;;15.70;;
78205;SDS011;67480;48.920;12.880;2024-03-22T06:01:08;20.38;;;14.45;;
78205;SDS011;67480;48.920;12.880;2024-03-22T06:04:18;19.42;;;13.73;;
78205;SDS011;67480;48.920;12.880;2024-03-22T06:07:52;22.75;;;15.20;;
78205;SDS011;67480;48.920;12.880;2024-03-22T06:10:33;22.80;;;15.50;;
78205;SDS011;67480;48.920;12.880;2024-03-22T06:13:23;23.73;;;16.38;;
78205;SDS011;67480;48.920;12.880;2024-03-22T06:16:12;22.83;;;15.55;;
78205;SDS011;67480;48.920;12.880;2024-03-22T06:19:01;24.13;;;15.48;;
78205;SDS011;67480;48.920;12.880;2024-03-22T06:25:02;21.02;;;14.70;;
78205;SDS011;67480;48.920;12.880;2024-03-22T06:27:59;21.08;;;15.90;;
78205;SDS011;67480;48.920;12.880;2024-03-22T06:31:31;18.35;;;14.10;;
78205;SDS011;67480;48.920;12.880;2024-03-22T06:37:42;20.67;;;14.90;;
78205;SDS011;67480;48.920;12.880;2024-03-22T06:40:56;22.08;;;14.68;;
78205;SDS011;67480;48.920;12.880;2024-03-22T06:43:46;21.23;;;15.27;;
78205;SDS011;67480;48.920;12.880;2024-03-22T06:46:29;21.50;;;16.27;;
78205;SDS011;67480;48.920;12.880;2024-03-22T06:49:14;24.15;;;17.00;;
78205;SDS011;67480;48.920;12.880;2024-03-22T06:55:22;23.45;;;16.42;;
78205;SDS011;67480;48.920;12.880;2024-03-22T07:02:23;23.70;;;16.73;;
78205;SDS011;67480;48.920;12.880;2024-03-22T07:09:19;22.17;;;16.90;;
78205;SDS011;67480;48.920;12.880;2024-03-22T07:16:18;25.27;;;16.70;;
78205;SDS011;67480;48.920;12.880;2024-03-22T07:26:12;26.15;;;18.42;;
78205;SDS011;67480;48.920;12.880;2024-03-22T07:29:56;25.67;;;18.73;;
78205;SDS011;67480;48.920;12.880;2024-03-22T07:33:45;27.48;;;18.63;;
78205;SDS011;67480;48.920;12.880;2024-03-22T07:43:04;28.35;;;19.35;;
78205;SDS011;67480;48.920;12.880;2024-03-22T07:46:28;27.25;;;18.05;;
78205;SDS011;67480;48.920;12.880;2024-03-22T08:07:46;30.23;;;20.83;;
78205;SDS011;67480;48.920;12.880;2024-03-22T08:34:53;35.83;;;24.73;;
78205;SDS011;67480;48.920;12.880;2024-03-22T08:41:42;36.55;;;23.65;;
78205;SDS011;67480;48.920;12.880;2024-03-22T08:49:07;35.72;;;24.42;;
78205;SDS011;67480;48.920;12.880;2024-03-22T08:59:07;36.90;;;24.63;;
78205;SDS011;67480;48.920;12.880;2024-03-22T09:09:17;80.75;;;28.77;;
78205;SDS011;67480;48.920;12.880;2024-03-22T09:15:44;41.28;;;26.70;;
78205;SDS011;67480;48.920;12.880;2024-03-22T09:19:14;44.72;;;30.30;;
78205;SDS011;67480;48.920;12.880;2024-03-22T09:22:53;42.63;;;29.35;;
78205;SDS011;67480;48.920;12.880;2024-03-22T09:26:03;45.85;;;29.90;;
78205;SDS011;67480;48.920;12.880;2024-03-22T09:43:05;41.97;;;28.27;;
78205;SDS011;67480;48.920;12.880;2024-03-22T09:46:38;41.65;;;28.98;;
78205;SDS011;67480;48.920;12.880;2024-03-22T09:50:06;38.13;;;26.98;;
78205;SDS011;67480;48.920;12.880;2024-03-22T09:52:49;67.63;;;29.55;;
78205;SDS011;67480;48.920;12.880;2024-03-22T09:55:43;53.42;;;28.83;;
78205;SDS011;67480;48.920;12.880;2024-03-22T09:58:47;43.45;;;27.52;;
78205;SDS011;67480;48.920;12.880;2024-03-22T10:01:49;42.50;;;27.00;;
78205;SDS011;67480;48.920;12.880;2024-03-22T10:05:06;38.97;;;27.63;;
78205;SDS011;67480;48.920;12.880;2024-03-22T10:12:01;42.35;;;28.92;;
78205;SDS011;67480;48.920;12.880;2024-03-22T10:15:33;43.88;;;29.10;;
78205;SDS011;67480;48.920;12.880;2024-03-22T10:18:45;44.67;;;29.38;;
78205;SDS011;67480;48.920;12.880;2024-03-22T10:25:35;42.22;;;29.42;;
78205;SDS011;67480;48.920;12.880;2024-03-22T10:28:27;41.58;;;28.35;;
78205;SDS011;67480;48.920;12.880;2024-03-22T10:30:57;42.28;;;28.73;;
78205;SDS011;67480;48.920;12.880;2024-03-22T10:33:33;40.50;;;27.77;;
78205;SDS011;67480;48.920;12.880;2024-03-22T10:36:51;38.97;;;28.60;;
78205;SDS011;67480;48.920;12.880;2024-03-22T10:40:18;40.72;;;27.90;;
78205;SDS011;67480;48.920;12.880;2024-03-22T10:54:11;35.63;;;26.75;;
78205;SDS011;67480;48.920;12.880;2024-03-22T10:57:18;37.30;;;26.05;;
78205;SDS011;67480;48.920;12.880;2024-03-22T11:03:15;38.95;;;26.92;;
78205;SDS011;67480;48.920;12.880;2024-03-22T11:06:56;36.78;;;26.90;;
78205;SDS011;67480;48.920;12.880;2024-03-22T11:14:11;37.33;;;27.38;;
78205;SDS011;67480;48.920;12.880;2024-03-22T11:17:05;34.90;;;25.45;;
78205;SDS011;67480;48.920;12.880;2024-03-22T11:19:43;36.53;;;26.13;;
78205;SDS011;67480;48.920;12.880;2024-03-22T11:23:01;37.33;;;26.15;;
78205;SDS011;67480;48.920;12.880;2024-03-22T11:25:52;33.67;;;25.88;;
78205;SDS011;67480;48.920;12.880;2024-03-22T11:28:37;38.30;;;26.23;;
78205;SDS011;67480;48.920;12.880;2024-03-22T11:31:18;37.10;;;27.83;;
78205;SDS011;67480;48.920;12.880;2024-03-22T11:37:49;39.97;;;25.83;;
78205;SDS011;67480;48.920;12.880;2024-03-22T11:44:47;37.33;;;27.13;;
78205;SDS011;67480;48.920;12.880;2024-03-22T11:48:02;34.92;;;27.17;;
78205;SDS011;67480;48.920;12.880;2024-03-22T11:51:15;35.20;;;26.75;;
78205;SDS011;67480;48.920;12.880;2024-03-22T11:54:34;40.33;;;28.08;;
78205;SDS011;67480;48.920;12.880;2024-03-22T11:58:04;38.03;;;27.17;;
78205;SDS011;67480;48.920;12.880;2024-03-22T12:01:19;35.65;;;26.42;;
78205;SDS011;67480;48.920;12.880;2024-03-22T12:07:39;35.55;;;26.15;;
78205;SDS011;67480;48.920;12.880;2024-03-22T12:10:47;36.58;;;27.02;;
78205;SDS011;67480;48.920;12.880;2024-03-22T12:14:03;35.22;;;26.17;;
78205;SDS011;67480;48.920;12.880;2024-03-22T12:23:34;35.63;;;25.88;;
78205;SDS011;67480;48.920;12.880;2024-03-22T12:30:25;38.78;;;26.02;;
78205;SDS011;67480;48.920;12.880;2024-03-22T12:33:36;35.45;;;25.95;;
78205;SDS011;67480;48.920;12.880;2024-03-22T12:36:44;37.92;;;26.33;;
78205;SDS011;67480;48.920;12.880;2024-03-22T12:39:36;37.60;;;25.88;;
78205;SDS011;67480;48.920;12.880;2024-03-22T12:46:19;36.35;;;27.15;;
78205;SDS011;67480;48.920;12.880;2024-03-22T12:49:33;38.35;;;26.77;;
78205;SDS011;67480;48.920;12.880;2024-03-22T12:52:59;37.20;;;25.25;;
78205;SDS011;67480;48.920;12.880;2024-03-22T12:56:12;33.37;;;25.53;;
78205;SDS011;67480;48.920;12.880;2024-03-22T12:59:09;36.88;;;25.88;;
78205;SDS011;67480;48.920;12.880;2024-03-22T13:01:48;35.28;;;25.33;;
78205;SDS011;67480;48.920;12.880;2024-03-22T13:07:59;36.80;;;24.98;;
78205;SDS011;67480;48.920;12.880;2024-03-22T13:11:11;36.30;;;25.63;;
78205;SDS011;67480;48.920;12.880;2024-03-22T13:13:48;34.97;;;25.15;;
78205;SDS011;67480;48.920;12.880;2024-03-22T13:16:24;35.92;;;25.90;;
78205;SDS011;67480;48.920;12.880;2024-03-22T13:19:12;30.63;;;23.77;;
78205;SDS011;67480;48.920;12.880;2024-03-22T13:21:49;32.97;;;25.10;;
78205;SDS011;67480;48.920;12.880;2024-03-22T13:24:59;34.35;;;24.73;;
78205;SDS011;67480;48.920;12.880;2024-03-22T13:27:52;34.05;;;24.13;;
78205;SDS011;67480;48.920;12.880;2024-03-22T13:30:24;37.22;;;24.02;;
78205;SDS011;67480;48.920;12.880;2024-03-22T13:32:54;34.00;;;24.33;;
78205;SDS011;67480;48.920;12.880;2024-03-22T13:35:23;31.33;;;23.60;;
78205;SDS011;67480;48.920;12.880;2024-03-22T13:38:15;34.03;;;22.52;;
78205;SDS011;67480;48.920;12.880;2024-03-22T13:41:04;28.75;;;22.00;;
78205;SDS011;67480;48.920;12.880;2024-03-22T13:43:32;30.25;;;22.42;;
78205;SDS011;67480;48.920;12.880;2024-03-22T13:46:02;26.88;;;20.98;;
78205;SDS011;67480;48.920;12.880;2024-03-22T13:49:01;27.58;;;19.95;;
78205;SDS011;67480;48.920;12.880;2024-03-22T13:52:43;28.45;;;20.63;;
78205;SDS011;67480;48.920;12.880;2024-03-22T13:55:10;27.67;;;20.40;;
78205;SDS011;67480;48.920;12.880;2024-03-22T13:57:58;26.17;;;20.15;;
78205;SDS011;67480;48.920;12.880;2024-03-22T14:01:12;25.70;;;18.92;;
78205;SDS011;67480;48.920;12.880;2024-03-22T14:03:43;25.52;;;19.38;;
78205;SDS011;67480;48.920;12.880;2024-03-22T14:06:09;26.60;;;18.38;;
78205;SDS011;67480;48.920;12.880;2024-03-22T14:08:55;24.25;;;17.52;;
78205;SDS011;67480;48.920;12.880;2024-03-22T14:11:35;25.85;;;18.23;;
78205;SDS011;67480;48.920;12.880;2024-03-22T14:14:18;22.65;;;17.10;;
78205;SDS011;67480;48.920;12.880;2024-03-22T14:16:45;24.17;;;17.42;;
78205;SDS011;67480;48.920;12.880;2024-03-22T14:19:12;23.45;;;17.05;;
78205;SDS011;67480;48.920;12.880;2024-03-22T14:21:43;21.60;;;15.63;;
78205;SDS011;67480;48.920;12.880;2024-03-22T14:24:22;26.17;;;16.25;;
78205;SDS011;67480;48.920;12.880;2024-03-22T14:26:51;22.33;;;15.80;;
78205;SDS011;67480;48.920;12.880;2024-03-22T14:29:22;21.75;;;15.93;;
78205;SDS011;67480;48.920;12.880;2024-03-22T14:31:55;21.42;;;16.00;;
78205;SDS011;67480;48.920;12.880;2024-03-22T14:34:45;21.70;;;16.42;;
78205;SDS011;67480;48.920;12.880;2024-03-22T14:37:56;20.65;;;15.38;;
78205;SDS011;67480;48.920;12.880;2024-03-22T14:40:27;21.20;;;14.68;;
78205;SDS011;67480;48.920;12.880;2024-03-22T14:42:55;21.70;;;14.63;;
78205;SDS011;67480;48.920;12.880;2024-03-22T14:45:30;17.58;;;14.18;;
78205;SDS011;67480;48.920;12.880;2024-03-22T14:51:35;21.33;;;15.45;;
78205;SDS011;67480;48.920;12.880;2024-03-22T14:54:08;19.75;;;14.05;;
78205;SDS011;67480;48.920;12.880;2024-03-22T14:56:37;19.10;;;14.80;;
78205;SDS011;67480;48.920;12.880;2024-03-22T14:59:11;18.50;;;14.98;;
78205;SDS011;67480;48.920;12.880;2024-03-22T15:01:45;17.75;;;14.05;;
78205;SDS011;67480;48.920;12.880;2024-03-22T15:04:23;26.77;;;14.47;;
78205;SDS011;67480;48.920;12.880;2024-03-22T15:06:59;19.77;;;14.40;;
78205;SDS011;67480;48.920;12.880;2024-03-22T15:09:51;19.27;;;14.48;;
78205;SDS011;67480;48.920;12.880;2024-03-22T15:12:20;18.02;;;14.70;;
78205;SDS011;67480;48.920;12.880;2024-03-22T15:14:53;21.08;;;14.57;;
78205;SDS011;67480;48.920;12.880;2024-03-22T15:17:25;19.40;;;14.32;;
78205;SDS011;67480;48.920;12.880;2024-03-22T15:20:28;18.60;;;14.15;;
78205;SDS011;67480;48.920;12.880;2024-03-22T15:22:55;20.27;;;13.98;;
78205;SDS011;67480;48.920;12.880;2024-03-22T15:25:24;18.15;;;13.65;;
78205;SDS011;67480;48.920;12.880;2024-03-22T15:27:59;17.15;;;13.68;;
78205;SDS011;67480;48.920;12.880;2024-03-22T15:31:02;18.42;;;13.73;;
78205;SDS011;67480;48.920;12.880;2024-03-22T15:34:22;17.50;;;13.57;;
78205;SDS011;67480;48.920;12.880;2024-03-22T15:37:39;16.88;;;12.95;;
78205;SDS011;67480;48.920;12.880;2024-03-22T15:40:17;16.15;;;12.88;;
78205;SDS011;67480;48.920;12.880;2024-03-22T15:42:45;17.48;;;13.70;;
78205;SDS011;67480;48.920;12.880;2024-03-22T15:45:35;16.10;;;13.10;;
78205;SDS011;67480;48.920;12.880;2024-03-22T15:48:31;15.80;;;12.65;;
78205;SDS011;67480;48.920;12.880;2024-03-22T15:50:57;15.95;;;13.20;;
78205;SDS011;67480;48.920;12.880;2024-03-22T15:53:47;18.27;;;14.63;;
78205;SDS011;67480;48.920;12.880;2024-03-22T15:56:37;17.55;;;13.85;;
78205;SDS011;67480;48.920;12.880;2024-03-22T15:59:08;16.08;;;13.50;;
78205;SDS011;67480;48.920;12.880;2024-03-22T16:01:53;19.33;;;14.30;;
78205;SDS011;67480;48.920;12.880;2024-03-22T16:04:21;17.50;;;13.60;;
78205;SDS011;67480;48.920;12.880;2024-03-22T16:07:36;19.10;;;13.93;;
78205;SDS011;67480;48.920;12.880;2024-03-22T16:10:58;15.18;;;13.45;;
78205;SDS011;67480;48.920;12.880;2024-03-22T16:14:42;16.75;;;13.32;;
78205;SDS011;67480;48.920;12.880;2024-03-22T16:18:01;15.80;;;12.68;;
78205;SDS011;67480;48.920;12.880;2024-03-22T16:20:50;16.08;;;12.20;;
78205;SDS011;67480;48.920;12.880;2024-03-22T16:23:29;12.60;;;10.40;;
78205;SDS011;67480;48.920;12.880;2024-03-22T16:26:04;12.68;;;9.57;;
78205;SDS011;67480;48.920;12.880;2024-03-22T16:28:59;11.40;;;10.02;;
78205;SDS011;67480;48.920;12.880;2024-03-22T16:31:28;11.68;;;9.60;;
78205;SDS011;67480;48.920;12.880;2024-03-22T16:33:55;12.52;;;10.38;;
78205;SDS011;67480;48.920;12.880;2024-03-22T16:36:55;11.95;;;9.88;;
78205;SDS011;67480;48.920;12.880;2024-03-22T16:39:30;13.10;;;10.23;;
78205;SDS011;67480;48.920;12.880;2024-03-22T16:41:57;16.48;;;12.90;;
78205;SDS011;67480;48.920;12.880;2024-03-22T16:44:23;14.60;;;11.55;;
78205;SDS011;67480;48.920;12.880;2024-03-22T16:46:50;13.85;;;10.45;;
78205;SDS011;67480;48.920;12.880;2024-03-22T16:49:37;12.88;;;9.55;;
78205;SDS011;67480;48.920;12.880;2024-03-22T16:52:07;13.07;;;9.90;;
78205;SDS011;67480;48.920;12.880;2024-03-22T16:54:37;13.10;;;10.80;;
78205;SDS011;67480;48.920;12.880;2024-03-22T16:57:08;12.55;;;10.40;;
78205;SDS011;67480;48.920;12.880;2024-03-22T16:59:39;10.77;;;9.68;;
78205;SDS011;67480;48.920;12.880;2024-03-22T17:02:30;12.20;;;9.65;;
78205;SDS011;67480;48.920;12.880;2024-03-22T17:04:56;13.60;;;10.85;;
78205;SDS011;67480;48.920;12.880;2024-03-22T17:07:33;12.60;;;9.88;;
78205;SDS011;67480;48.920;12.880;2024-03-22T17:10:16;12.18;;;9.73;;
78205;SDS011;67480;48.920;12.880;2024-03-22T17:13:05;12.75;;;9.52;;
78205;SDS011;67480;48.920;12.880;2024-03-22T17:15:32;12.35;;;10.18;;
78205;SDS011;67480;48.920;12.880;2024-03-22T17:18:08;16.13;;;9.55;;
78205;SDS011;67480;48.920;12.880;2024-03-22T17:21:12;12.00;;;9.73;;
78205;SDS011;67480;48.920;12.880;2024-03-22T17:24:47;12.88;;;9.55;;
78205;SDS011;67480;48.920;12.880;2024-03-22T17:27:18;14.35;;;9.95;;
78205;SDS011;67480;48.920;12.880;2024-03-22T17:29:46;13.10;;;9.48;;
78205;SDS011;67480;48.920;12.880;2024-03-22T17:32:15;10.73;;;9.52;;
78205;SDS011;67480;48.920;12.880;2024-03-22T17:34:46;14.23;;;9.98;;
78205;SDS011;67480;48.920;12.880;2024-03-22T17:37:15;11.77;;;9.98;;
78205;SDS011;67480;48.920;12.880;2024-03-22T17:39:43;11.40;;;9.57;;
78205;SDS011;67480;48.920;12.880;2024-03-22T17:42:20;13.88;;;9.02;;
78205;SDS011;67480;48.920;12.880;2024-03-22T17:44:49;9.70;;;8.65;;
78205;SDS011;67480;48.920;12.880;2024-03-22T17:47:25;11.43;;;9.05;;
78205;SDS011;67480;48.920;12.880;2024-03-22T17:50:01;10.07;;;8.63;;
78205;SDS011;67480;48.920;12.880;2024-03-22T17:52:36;12.27;;;8.07;;
78205;SDS011;67480;48.920;12.880;2024-03-22T17:55:02;9.05;;;7.95;;
78205;SDS011;67480;48.920;12.880;2024-03-22T17:57:35;9.75;;;8.45;;
78205;SDS011;67480;48.920;12.880;2024-03-22T18:00:55;10.38;;;8.52;;
78205;SDS011;67480;48.920;12.880;2024-03-22T18:03:49;9.25;;;7.80;;
78205;SDS011;67480;48.920;12.880;2024-03-22T18:06:19;8.38;;;7.00;;
78205;SDS011;67480;48.920;12.880;2024-03-22T18:08:49;8.65;;;7.55;;
78205;SDS011;67480;48.920;12.880;2024-03-22T18:11:19;8.68;;;7.18;;
78205;SDS011;67480;48.920;12.880;2024-03-22T18:14:00;8.50;;;7.25;;
78205;SDS011;67480;48.920;12.880;2024-03-22T18:16:37;9.52;;;7.05;;
78205;SDS011;67480;48.920;12.880;2024-03-22T18:19:06;8.13;;;6.78;;
78205;SDS011;67480;48.920;12.880;2024-03-22T18:22:04;8.73;;;6.40;;
78205;SDS011;67480;48.920;12.880;2024-03-22T18:25:08;10.88;;;6.40;;
78205;SDS011;67480;48.920;12.880;2024-03-22T18:27:36;7.03;;;6.32;;
78205;SDS011;67480;48.920;12.880;2024-03-22T18:30:11;9.15;;;6.80;;
78205;SDS011;67480;48.920;12.880;2024-03-22T18:32:57;6.97;;;6.18;;
78205;SDS011;67480;48.920;12.880;2024-03-22T18:35:25;7.43;;;6.35;;
78205;SDS011;67480;48.920;12.880;2024-03-22T18:37:58;6.47;;;5.87;;
78205;SDS011;67480;48.920;12.880;2024-03-22T18:40:24;8.68;;;6.88;;
78205;SDS011;67480;48.920;12.880;2024-03-22T18:42:49;10.20;;;7.63;;
78205;SDS011;67480;48.920;12.880;2024-03-22T18:45:15;8.32;;;6.57;;
78205;SDS011;67480;48.920;12.880;2024-03-22T18:47:40;9.10;;;7.43;;
78205;SDS011;67480;48.920;12.880;2024-03-22T18:50:06;8.50;;;6.72;;
78205;SDS011;67480;48.920;12.880;2024-03-22T18:52:34;8.27;;;6.97;;
78205;SDS011;67480;48.920;12.880;2024-03-22T18:55:02;7.15;;;6.20;;
78205;SDS011;67480;48.920;12.880;2024-03-22T18:57:28;7.60;;;6.25;;
78205;SDS011;67480;48.920;12.880;2024-03-22T18:59:53;6.80;;;6.10;;
78205;SDS011;67480;48.920;12.880;2024-03-22T19:02:19;6.35;;;5.75;;
78205;SDS011;67480;48.920;12.880;2024-03-22T19:04:44;8.07;;;6.03;;
78205;SDS011;67480;48.920;12.880;2024-03-22T19:07:09;6.53;;;5.55;;
78205;SDS011;67480;48.920;12.880;2024-03-22T19:09:35;6.47;;;5.85;;
78205;SDS011;67480;48.920;12.880;2024-03-22T19:12:00;6.82;;;5.65;;
78205;SDS011;67480;48.920;12.880;2024-03-22T19:14:26;7.15;;;6.20;;
78205;SDS011;67480;48.920;12.880;2024-03-22T19:16:51;7.00;;;5.82;;
78205;SDS011;67480;48.920;12.880;2024-03-22T19:19:17;6.90;;;5.90;;
78205;SDS011;67480;48.920;12.880;2024-03-22T19:21:45;7.60;;;5.90;;
78205;SDS011;67480;48.920;12.880;2024-03-22T19:24:10;10.00;;;6.00;;
78205;SDS011;67480;48.920;12.880;2024-03-22T19:26:36;6.38;;;5.78;;
78205;SDS011;67480;48.920;12.880;2024-03-22T19:29:02;8.50;;;6.07;;
78205;SDS011;67480;48.920;12.880;2024-03-22T19:31:28;9.35;;;6.47;;
78205;SDS011;67480;48.920;12.880;2024-03-22T19:33:54;6.15;;;5.60;;
78205;SDS011;67480;48.920;12.880;2024-03-22T19:36:19;8.30;;;6.05;;
78205;SDS011;67480;48.920;12.880;2024-03-22T19:38:45;7.40;;;5.32;;
78205;SDS011;67480;48.920;12.880;2024-03-22T19:41:11;7.35;;;5.90;;
78205;SDS011;67480;48.920;12.880;2024-03-22T19:43:36;6.90;;;5.60;;
78205;SDS011;67480;48.920;12.880;2024-03-22T19:46:02;8.88;;;5.88;;
78205;SDS011;67480;48.920;12.880;2024-03-22T19:48:28;8.85;;;6.03;;
78205;SDS011;67480;48.920;12.880;2024-03-22T19:50:54;5.82;;;5.32;;
78205;SDS011;67480;48.920;12.880;2024-03-22T19:53:19;7.22;;;5.22;;
78205;SDS011;67480;48.920;12.880;2024-03-22T19:55:44;6.20;;;5.13;;
78205;SDS011;67480;48.920;12.880;2024-03-22T19:58:10;6.03;;;5.43;;
78205;SDS011;67480;48.920;12.880;2024-03-22T20:00:35;6.85;;;5.72;;
78205;SDS011;67480;48.920;12.880;2024-03-22T20:03:00;7.07;;;5.07;;
78205;SDS011;67480;48.920;12.880;2024-03-22T20:05:26;5.93;;;5.20;;
78205;SDS011;67480;48.920;12.880;2024-03-22T20:07:51;7.85;;;6.18;;
78205;SDS011;67480;48.920;12.880;2024-03-22T20:10:16;7.75;;;5.90;;
78205;SDS011;67480;48.920;12.880;2024-03-22T20:12:42;6.55;;;5.38;;
78205;SDS011;67480;48.920;12.880;2024-03-22T20:15:08;6.28;;;5.40;;
78205;SDS011;67480;48.920;12.880;2024-03-22T20:17:35;6.13;;;5.10;;
78205;SDS011;67480;48.920;12.880;2024-03-22T20:20:01;5.85;;;5.25;;
78205;SDS011;67480;48.920;12.880;2024-03-22T20:22:27;6.68;;;5.22;;
78205;SDS011;67480;48.920;12.880;2024-03-22T20:24:53;6.00;;;5.40;;
78205;SDS011;67480;48.920;12.880;2024-03-22T20:27:18;6.97;;;5.70;;
78205;SDS011;67480;48.920;12.880;2024-03-22T20:29:43;7.07;;;5.75;;
78205;SDS011;67480;48.920;12.880;2024-03-22T20:32:09;8.07;;;5.13;;
78205;SDS011;67480;48.920;12.880;2024-03-22T20:34:34;6.78;;;5.80;;
78205;SDS011;67480;48.920;12.880;2024-03-22T20:36:59;6.53;;;4.90;;
